sensor_id;sensor_type;location;lat;lon;timestamp;pressure;altitude;pressure_sealevel;temperature;humidity
38616;BME280;24370;51.986;4.666;2023-03-26T00:01:33;100746.28;;;18.76;45.83
38616;BME280;24370;51.986;4.666;2023-03-26T00:04:01;100741.69;;;19.20;45.28
38616;BME280;24370;51.986;4.666;2023-03-26T00:06:28;100744.75;;;19.66;44.45
38616;BME280;24370;51.986;4.666;2023-03-26T00:08:56;100740.47;;;18.89;45.31
38616;BME280;24370;51.986;4.666;2023-03-26T00:11:23;100737.84;;;19.98;43.83
38616;BME280;24370;51.986;4.666;2023-03-26T00:13:50;100739.38;;;18.93;45.85
38616;BME280;24370;51.986;4.666;2023-03-26T00:16:19;100736.88;;;18.90;45.62
38616;BME280;24370;51.986;4.666;2023-03-26T00:18:45;100732.53;;;19.98;43.78
38616;BME280;24370;51.986;4.666;2023-03-26T00:21:13;100729.84;;;19.27;45.79
38616;BME280;24370;51.986;4.666;2023-03-26T00:23:39;100725.94;;;19.90;44.43
38616;BME280;24370;51.986;4.666;2023-03-26T00:26:05;100721.00;;;19.09;46.27
38616;BME280;24370;51.986;4.666;2023-03-26T00:28:38;100719.38;;;18.86;47.28
38616;BME280;24370;51.986;4.666;2023-03-26T00:31:05;100714.84;;;19.99;43.67
38616;BME280;24370;51.986;4.666;2023-03-26T00:33:31;100713.75;;;20.03;44.26
38616;BME280;24370;51.986;4.666;2023-03-26T00:35:58;100708.13;;;19.74;43.85
38616;BME280;24370;51.986;4.666;2023-03-26T00:38:26;100693.03;;;20.61;42.51
38616;BME280;24370;51.986;4.666;2023-03-26T00:40:52;100702.91;;;20.41;42.79
38616;BME280;24370;51.986;4.666;2023-03-26T00:43:20;100702.66;;;19.77;43.53
38616;BME280;24370;51.986;4.666;2023-03-26T00:45:51;100693.31;;;20.05;43.25
38616;BME280;24370;51.986;4.666;2023-03-26T00:48:19;100695.00;;;20.24;43.53
38616;BME280;24370;51.986;4.666;2023-03-26T00:50:45;100678.25;;;21.21;41.33
38616;BME280;24370;51.986;4.666;2023-03-26T00:53:12;100676.53;;;20.38;42.38
38616;BME280;24370;51.986;4.666;2023-03-26T00:55:43;100680.75;;;20.09;43.97
38616;BME280;24370;51.986;4.666;2023-03-26T00:58:10;100671.44;;;20.67;42.49
38616;BME280;24370;51.986;4.666;2023-03-26T01:00:42;100670.31;;;20.55;42.52
38616;BME280;24370;51.986;4.666;2023-03-26T01:03:12;100663.09;;;20.91;41.56
38616;BME280;24370;51.986;4.666;2023-03-26T01:05:46;100662.75;;;20.97;41.24
38616;BME280;24370;51.986;4.666;2023-03-26T01:08:46;100661.22;;;20.93;41.53
38616;BME280;24370;51.986;4.666;2023-03-26T01:11:17;100668.19;;;19.77;43.42
38616;BME280;24370;51.986;4.666;2023-03-26T01:13:49;100669.78;;;19.81;44.39
38616;BME280;24370;51.986;4.666;2023-03-26T01:16:28;100661.47;;;20.05;43.45
38616;BME280;24370;51.986;4.666;2023-03-26T01:18:55;100661.09;;;19.95;43.11
38616;BME280;24370;51.986;4.666;2023-03-26T01:21:24;100659.81;;;20.20;42.12
38616;BME280;24370;51.986;4.666;2023-03-26T01:26:37;100649.44;;;20.15;42.45
38616;BME280;24370;51.986;4.666;2023-03-26T01:29:14;100634.78;;;20.58;41.48
38616;BME280;24370;51.986;4.666;2023-03-26T01:34:32;100642.84;;;19.00;45.33
38616;BME280;24370;51.986;4.666;2023-03-26T01:39:42;100624.38;;;18.60;46.70
38616;BME280;24370;51.986;4.666;2023-03-26T01:42:24;100616.53;;;18.59;46.40
38616;BME280;24370;51.986;4.666;2023-03-26T01:45:00;100620.16;;;19.66;44.51
38616;BME280;24370;51.986;4.666;2023-03-26T01:47:32;100612.28;;;18.93;46.49
38616;BME280;24370;51.986;4.666;2023-03-26T01:49:58;100610.97;;;18.82;46.27
38616;BME280;24370;51.986;4.666;2023-03-26T01:52:24;100610.34;;;18.77;46.52
38616;BME280;24370;51.986;4.666;2023-03-26T01:54:53;100606.38;;;17.89;47.86
38616;BME280;24370;51.986;4.666;2023-03-26T02:00:09;100599.97;;;18.16;47.71
38616;BME280;24370;51.986;4.666;2023-03-26T02:05:31;100599.22;;;17.93;48.14
38616;BME280;24370;51.986;4.666;2023-03-26T02:08:19;100595.59;;;18.14;48.12
38616;BME280;24370;51.986;4.666;2023-03-26T02:10:50;100601.03;;;16.85;50.86
38616;BME280;24370;51.986;4.666;2023-03-26T02:13:16;100594.09;;;17.88;48.86
38616;BME280;24370;51.986;4.666;2023-03-26T02:15:56;100587.34;;;18.41;47.84
38616;BME280;24370;51.986;4.666;2023-03-26T02:18:22;100583.06;;;17.99;48.95
38616;BME280;24370;51.986;4.666;2023-03-26T02:20:50;100577.41;;;19.02;46.31
38616;BME280;24370;51.986;4.666;2023-03-26T02:23:18;100581.47;;;18.54;46.59
38616;BME280;24370;51.986;4.666;2023-03-26T02:25:43;100572.09;;;18.08;47.59
38616;BME280;24370;51.986;4.666;2023-03-26T02:28:08;100569.16;;;18.34;47.59
38616;BME280;24370;51.986;4.666;2023-03-26T02:30:34;100559.00;;;19.69;44.17
38616;BME280;24370;51.986;4.666;2023-03-26T02:32:59;100573.50;;;19.09;45.39
38616;BME280;24370;51.986;4.666;2023-03-26T02:35:25;100561.81;;;19.66;44.71
38616;BME280;24370;51.986;4.666;2023-03-26T02:37:50;100566.41;;;18.73;45.95
38616;BME280;24370;51.986;4.666;2023-03-26T02:40:17;100558.72;;;18.50;47.87
38616;BME280;24370;51.986;4.666;2023-03-26T02:42:45;100554.13;;;17.96;47.38
38616;BME280;24370;51.986;4.666;2023-03-26T02:45:11;100551.94;;;18.80;46.10
38616;BME280;24370;51.986;4.666;2023-03-26T02:47:37;100552.53;;;18.68;45.94
38616;BME280;24370;51.986;4.666;2023-03-26T02:50:03;100547.28;;;18.11;46.84
38616;BME280;24370;51.986;4.666;2023-03-26T02:52:28;100551.25;;;19.31;45.57
38616;BME280;24370;51.986;4.666;2023-03-26T02:54:54;100553.97;;;19.12;45.15
38616;BME280;24370;51.986;4.666;2023-03-26T02:57:21;100549.16;;;18.84;46.16
38616;BME280;24370;51.986;4.666;2023-03-26T02:59:46;100547.00;;;18.36;47.34
38616;BME280;24370;51.986;4.666;2023-03-26T03:02:14;100546.72;;;19.15;45.49
38616;BME280;24370;51.986;4.666;2023-03-26T03:04:40;100537.53;;;19.91;44.34
38616;BME280;24370;51.986;4.666;2023-03-26T03:07:05;100530.06;;;20.47;42.55
38616;BME280;24370;51.986;4.666;2023-03-26T03:09:32;100541.25;;;20.21;42.97
38616;BME280;24370;51.986;4.666;2023-03-26T03:11:57;100538.31;;;21.05;40.92
38616;BME280;24370;51.986;4.666;2023-03-26T03:14:22;100522.91;;;20.00;43.24
38616;BME280;24370;51.986;4.666;2023-03-26T03:16:48;100524.97;;;19.95;42.32
38616;BME280;24370;51.986;4.666;2023-03-26T03:19:14;100521.38;;;20.60;41.81
38616;BME280;24370;51.986;4.666;2023-03-26T03:21:40;100525.56;;;19.66;43.67
38616;BME280;24370;51.986;4.666;2023-03-26T03:24:06;100513.78;;;21.00;40.61
38616;BME280;24370;51.986;4.666;2023-03-26T03:26:32;100515.16;;;20.61;41.00
38616;BME280;24370;51.986;4.666;2023-03-26T03:28:58;100507.34;;;20.74;41.45
38616;BME280;24370;51.986;4.666;2023-03-26T03:31:25;100514.25;;;21.23;40.07
38616;BME280;24370;51.986;4.666;2023-03-26T03:33:51;100507.44;;;21.02;40.18
38616;BME280;24370;51.986;4.666;2023-03-26T03:36:18;100512.53;;;21.22;39.97
38616;BME280;24370;51.986;4.666;2023-03-26T03:38:46;100512.22;;;20.81;40.72
38616;BME280;24370;51.986;4.666;2023-03-26T03:41:12;100503.81;;;21.48;39.80
38616;BME280;24370;51.986;4.666;2023-03-26T03:43:38;100500.22;;;21.49;39.24
38616;BME280;24370;51.986;4.666;2023-03-26T03:46:03;100499.91;;;20.95;40.12
38616;BME280;24370;51.986;4.666;2023-03-26T03:48:29;100493.59;;;21.57;39.34
38616;BME280;24370;51.986;4.666;2023-03-26T03:50:55;100489.59;;;21.49;39.83
38616;BME280;24370;51.986;4.666;2023-03-26T03:53:22;100485.97;;;22.08;38.30
38616;BME280;24370;51.986;4.666;2023-03-26T03:55:51;100475.94;;;21.84;38.61
38616;BME280;24370;51.986;4.666;2023-03-26T03:58:21;100485.25;;;21.63;38.89
38616;BME280;24370;51.986;4.666;2023-03-26T04:00:50;100478.25;;;20.87;40.03
38616;BME280;24370;51.986;4.666;2023-03-26T04:03:16;100479.88;;;20.89;39.62
38616;BME280;24370;51.986;4.666;2023-03-26T04:05:43;100479.78;;;21.50;39.11
38616;BME280;24370;51.986;4.666;2023-03-26T04:08:15;100467.19;;;21.39;39.80
38616;BME280;24370;51.986;4.666;2023-03-26T04:10:42;100466.03;;;21.29;39.47
38616;BME280;24370;51.986;4.666;2023-03-26T04:13:08;100452.84;;;21.71;39.01
38616;BME280;24370;51.986;4.666;2023-03-26T04:15:34;100462.13;;;21.20;40.09
38616;BME280;24370;51.986;4.666;2023-03-26T04:18:00;100450.66;;;21.48;39.06
38616;BME280;24370;51.986;4.666;2023-03-26T04:20:25;100446.22;;;21.49;39.32
38616;BME280;24370;51.986;4.666;2023-03-26T04:22:51;100450.13;;;21.13;39.92
38616;BME280;24370;51.986;4.666;2023-03-26T04:25:17;100430.66;;;21.57;38.76
38616;BME280;24370;51.986;4.666;2023-03-26T04:27:43;100442.50;;;21.23;38.82
38616;BME280;24370;51.986;4.666;2023-03-26T04:30:11;100427.63;;;22.05;38.32
38616;BME280;24370;51.986;4.666;2023-03-26T04:32:39;100426.19;;;21.72;38.38
38616;BME280;24370;51.986;4.666;2023-03-26T04:35:09;100420.56;;;21.62;38.42
38616;BME280;24370;51.986;4.666;2023-03-26T04:37:37;100414.56;;;21.01;39.84
38616;BME280;24370;51.986;4.666;2023-03-26T04:40:12;100414.09;;;21.23;39.38
38616;BME280;24370;51.986;4.666;2023-03-26T04:42:38;100410.13;;;21.45;39.17
38616;BME280;24370;51.986;4.666;2023-03-26T04:45:14;100410.44;;;21.55;38.77
38616;BME280;24370;51.986;4.666;2023-03-26T04:47:40;100406.47;;;21.89;38.31
38616;BME280;24370;51.986;4.666;2023-03-26T04:50:07;100398.63;;;21.30;39.21
38616;BME280;24370;51.986;4.666;2023-03-26T04:52:33;100394.03;;;21.90;38.23
38616;BME280;24370;51.986;4.666;2023-03-26T04:54:59;100398.25;;;21.65;38.45
38616;BME280;24370;51.986;4.666;2023-03-26T04:57:37;100393.81;;;21.65;38.29
38616;BME280;24370;51.986;4.666;2023-03-26T05:00:06;100393.03;;;21.78;38.25
38616;BME280;24370;51.986;4.666;2023-03-26T05:02:39;100381.81;;;21.29;38.90
38616;BME280;24370;51.986;4.666;2023-03-26T05:05:06;100388.00;;;21.59;38.80
38616;BME280;24370;51.986;4.666;2023-03-26T05:07:31;100377.19;;;21.62;39.07
38616;BME280;24370;51.986;4.666;2023-03-26T05:09:57;100374.22;;;21.09;39.80
38616;BME280;24370;51.986;4.666;2023-03-26T05:12:22;100367.69;;;21.14;39.48
38616;BME280;24370;51.986;4.666;2023-03-26T05:14:48;100365.19;;;20.82;39.99
38616;BME280;24370;51.986;4.666;2023-03-26T05:17:14;100357.38;;;20.65;40.69
38616;BME280;24370;51.986;4.666;2023-03-26T05:19:43;100363.81;;;19.01;43.69
38616;BME280;24370;51.986;4.666;2023-03-26T05:22:08;100356.38;;;20.21;41.89
38616;BME280;24370;51.986;4.666;2023-03-26T05:24:34;100342.84;;;20.26;41.65
38616;BME280;24370;51.986;4.666;2023-03-26T05:26:59;100337.03;;;20.49;40.86
38616;BME280;24370;51.986;4.666;2023-03-26T05:29:25;100342.44;;;20.48;41.49
38616;BME280;24370;51.986;4.666;2023-03-26T05:31:51;100339.47;;;20.38;41.63
38616;BME280;24370;51.986;4.666;2023-03-26T05:34:16;100343.03;;;20.23;41.69
38616;BME280;24370;51.986;4.666;2023-03-26T05:36:43;100325.63;;;21.21;39.60
38616;BME280;24370;51.986;4.666;2023-03-26T05:39:09;100328.81;;;20.24;41.85
38616;BME280;24370;51.986;4.666;2023-03-26T05:41:34;100331.38;;;20.25;41.59
38616;BME280;24370;51.986;4.666;2023-03-26T05:43:59;100336.53;;;20.12;41.62
38616;BME280;24370;51.986;4.666;2023-03-26T05:46:25;100324.56;;;19.57;43.17
38616;BME280;24370;51.986;4.666;2023-03-26T05:48:51;100320.38;;;20.01;42.19
38616;BME280;24370;51.986;4.666;2023-03-26T05:51:18;100323.22;;;19.98;41.94
38616;BME280;24370;51.986;4.666;2023-03-26T05:53:43;100316.88;;;19.69;42.65
38616;BME280;24370;51.986;4.666;2023-03-26T05:56:09;100322.03;;;19.88;42.82
38616;BME280;24370;51.986;4.666;2023-03-26T05:58:34;100322.13;;;20.16;42.34
38616;BME280;24370;51.986;4.666;2023-03-26T06:01:06;100319.41;;;20.18;42.12
38616;BME280;24370;51.986;4.666;2023-03-26T06:03:37;100319.19;;;19.75;42.57
38616;BME280;24370;51.986;4.666;2023-03-26T06:06:07;100319.47;;;19.54;42.82
38616;BME280;24370;51.986;4.666;2023-03-26T06:08:33;100318.16;;;19.29;43.64
38616;BME280;24370;51.986;4.666;2023-03-26T06:11:00;100316.88;;;20.00;42.70
38616;BME280;24370;51.986;4.666;2023-03-26T06:13:26;100310.72;;;19.20;43.91
38616;BME280;24370;51.986;4.666;2023-03-26T06:15:51;100309.56;;;19.58;43.49
38616;BME280;24370;51.986;4.666;2023-03-26T06:18:17;100299.59;;;19.13;43.40
38616;BME280;24370;51.986;4.666;2023-03-26T06:20:43;100300.50;;;20.08;42.50
38616;BME280;24370;51.986;4.666;2023-03-26T06:23:09;100300.81;;;19.40;43.54
38616;BME280;24370;51.986;4.666;2023-03-26T06:25:36;100304.91;;;19.77;43.24
38616;BME280;24370;51.986;4.666;2023-03-26T06:28:01;100296.31;;;20.04;42.57
38616;BME280;24370;51.986;4.666;2023-03-26T06:30:27;100296.63;;;20.14;41.89
38616;BME280;24370;51.986;4.666;2023-03-26T06:32:52;100298.59;;;19.64;43.43
38616;BME280;24370;51.986;4.666;2023-03-26T06:35:17;100299.78;;;19.26;43.61
38616;BME280;24370;51.986;4.666;2023-03-26T06:37:43;100294.03;;;19.98;42.69
38616;BME280;24370;51.986;4.666;2023-03-26T06:40:09;100299.44;;;19.64;42.74
38616;BME280;24370;51.986;4.666;2023-03-26T06:42:34;100296.00;;;19.94;41.90
38616;BME280;24370;51.986;4.666;2023-03-26T06:45:00;100291.34;;;20.44;41.57
38616;BME280;24370;51.986;4.666;2023-03-26T06:47:25;100295.59;;;20.16;42.06
38616;BME280;24370;51.986;4.666;2023-03-26T06:49:51;100299.94;;;20.03;42.61
38616;BME280;24370;51.986;4.666;2023-03-26T06:52:16;100303.00;;;19.79;43.01
38616;BME280;24370;51.986;4.666;2023-03-26T06:54:43;100304.06;;;19.93;42.33
38616;BME280;24370;51.986;4.666;2023-03-26T06:57:08;100296.66;;;20.59;40.92
38616;BME280;24370;51.986;4.666;2023-03-26T06:59:33;100301.16;;;19.33;43.47
38616;BME280;24370;51.986;4.666;2023-03-26T07:01:59;100300.63;;;19.59;42.50
38616;BME280;24370;51.986;4.666;2023-03-26T07:04:24;100298.09;;;19.41;43.29
38616;BME280;24370;51.986;4.666;2023-03-26T07:06:49;100300.53;;;19.28;43.47
38616;BME280;24370;51.986;4.666;2023-03-26T07:09:15;100299.75;;;19.10;44.30
38616;BME280;24370;51.986;4.666;2023-03-26T07:11:40;100299.09;;;19.23;44.01
38616;BME280;24370;51.986;4.666;2023-03-26T07:14:05;100289.00;;;19.29;44.08
38616;BME280;24370;51.986;4.666;2023-03-26T07:16:31;100304.97;;;18.78;44.96
38616;BME280;24370;51.986;4.666;2023-03-26T07:18:56;100298.78;;;19.61;43.48
38616;BME280;24370;51.986;4.666;2023-03-26T07:21:22;100291.97;;;19.23;44.26
38616;BME280;24370;51.986;4.666;2023-03-26T07:23:48;100292.88;;;19.24;44.71
38616;BME280;24370;51.986;4.666;2023-03-26T07:26:36;100287.81;;;20.29;41.89
38616;BME280;24370;51.986;4.666;2023-03-26T07:31:48;100289.88;;;20.69;41.75
38616;BME280;24370;51.986;4.666;2023-03-26T07:34:49;100284.59;;;20.69;41.44
38616;BME280;24370;51.986;4.666;2023-03-26T07:37:34;100291.72;;;20.08;43.03
38616;BME280;24370;51.986;4.666;2023-03-26T07:43:02;100290.28;;;20.77;41.64
38616;BME280;24370;51.986;4.666;2023-03-26T07:45:41;100283.44;;;20.28;43.30
38616;BME280;24370;51.986;4.666;2023-03-26T07:48:36;100279.06;;;20.87;42.20
38616;BME280;24370;51.986;4.666;2023-03-26T07:51:05;100273.31;;;20.35;42.63
38616;BME280;24370;51.986;4.666;2023-03-26T07:53:31;100279.81;;;20.74;42.46
38616;BME280;24370;51.986;4.666;2023-03-26T07:56:18;100280.97;;;21.13;41.98
38616;BME280;24370;51.986;4.666;2023-03-26T07:59:02;100276.41;;;20.87;42.05
38616;BME280;24370;51.986;4.666;2023-03-26T08:07:19;100278.56;;;21.09;41.41
38616;BME280;24370;51.986;4.666;2023-03-26T08:15:37;100269.59;;;20.68;41.73
38616;BME280;24370;51.986;4.666;2023-03-26T08:21:43;100282.59;;;20.28;43.25
38616;BME280;24370;51.986;4.666;2023-03-26T08:24:20;100276.00;;;19.73;44.50
38616;BME280;24370;51.986;4.666;2023-03-26T08:26:57;100272.31;;;20.66;42.33
38616;BME280;24370;51.986;4.666;2023-03-26T08:29:38;100273.31;;;20.35;43.10
38616;BME280;24370;51.986;4.666;2023-03-26T08:32:13;100276.69;;;19.92;43.64
38616;BME280;24370;51.986;4.666;2023-03-26T08:34:39;100275.25;;;20.17;43.73
38616;BME280;24370;51.986;4.666;2023-03-26T08:37:05;100273.94;;;19.94;44.18
38616;BME280;24370;51.986;4.666;2023-03-26T08:39:30;100281.00;;;19.47;44.66
38616;BME280;24370;51.986;4.666;2023-03-26T08:45:13;100276.59;;;21.27;41.70
38616;BME280;24370;51.986;4.666;2023-03-26T08:59:36;100273.53;;;20.16;44.22
38616;BME280;24370;51.986;4.666;2023-03-26T09:16:13;100280.78;;;20.73;43.37
38616;BME280;24370;51.986;4.666;2023-03-26T09:30:08;100277.91;;;19.23;46.28
38616;BME280;24370;51.986;4.666;2023-03-26T09:32:28;100278.94;;;18.87;47.16
38616;BME280;24370;51.986;4.666;2023-03-26T09:38:07;100283.34;;;20.30;45.47
38616;BME280;24370;51.986;4.666;2023-03-26T09:40:54;100291.19;;;20.17;44.11
38616;BME280;24370;51.986;4.666;2023-03-26T09:49:16;100293.25;;;20.57;42.99
38616;BME280;24370;51.986;4.666;2023-03-26T10:00:26;100312.94;;;19.60;47.29
38616;BME280;24370;51.986;4.666;2023-03-26T10:03:18;100305.06;;;20.06;45.68
38616;BME280;24370;51.986;4.666;2023-03-26T10:14:26;100322.22;;;18.86;48.38
38616;BME280;24370;51.986;4.666;2023-03-26T10:30:56;100339.13;;;19.50;47.06
38616;BME280;24370;51.986;4.666;2023-03-26T10:33:35;100340.13;;;18.98;48.00
38616;BME280;24370;51.986;4.666;2023-03-26T10:47:40;100356.03;;;16.74;52.76
38616;BME280;24370;51.986;4.666;2023-03-26T10:56:31;100361.53;;;16.90;50.86
38616;BME280;24370;51.986;4.666;2023-03-26T10:59:00;100379.13;;;16.26;53.21
38616;BME280;24370;51.986;4.666;2023-03-26T11:02:05;100373.00;;;16.68;52.62
38616;BME280;24370;51.986;4.666;2023-03-26T11:12:54;100386.03;;;17.90;49.13
38616;BME280;24370;51.986;4.666;2023-03-26T11:15:55;100380.88;;;17.30;51.05
38616;BME280;24370;51.986;4.666;2023-03-26T11:18:37;100391.72;;;16.83;50.32
38616;BME280;24370;51.986;4.666;2023-03-26T11:21:23;100389.06;;;17.24;52.69
38616;BME280;24370;51.986;4.666;2023-03-26T11:26:51;100403.22;;;16.17;52.16
38616;BME280;24370;51.986;4.666;2023-03-26T11:31:57;100407.91;;;17.94;49.56
38616;BME280;24370;51.986;4.666;2023-03-26T11:35:54;100413.09;;;17.38;49.81
38616;BME280;24370;51.986;4.666;2023-03-26T11:37:51;100414.53;;;16.84;51.90
38616;BME280;24370;51.986;4.666;2023-03-26T11:40:26;100411.84;;;17.26;48.96
38616;BME280;24370;51.986;4.666;2023-03-26T11:43:05;100423.81;;;17.15;49.61
38616;BME280;24370;51.986;4.666;2023-03-26T11:45:35;100414.38;;;17.09;51.20
38616;BME280;24370;51.986;4.666;2023-03-26T11:48:07;100430.16;;;16.90;51.21
38616;BME280;24370;51.986;4.666;2023-03-26T11:50:40;100427.91;;;17.01;51.38
38616;BME280;24370;51.986;4.666;2023-03-26T11:53:28;100428.97;;;17.18;49.47
38616;BME280;24370;51.986;4.666;2023-03-26T11:58:29;100444.19;;;16.48;51.75
38616;BME280;24370;51.986;4.666;2023-03-26T12:00:56;100444.59;;;16.59;52.18
38616;BME280;24370;51.986;4.666;2023-03-26T12:03:21;100444.22;;;16.68;50.96
38616;BME280;24370;51.986;4.666;2023-03-26T12:05:50;100451.31;;;17.29;49.17
38616;BME280;24370;51.986;4.666;2023-03-26T12:08:29;100452.34;;;17.27;48.76
38616;BME280;24370;51.986;4.666;2023-03-26T12:11:10;100455.50;;;17.94;47.86
38616;BME280;24370;51.986;4.666;2023-03-26T12:13:42;100444.56;;;17.43;48.74
38616;BME280;24370;51.986;4.666;2023-03-26T12:16:19;100457.59;;;17.48;48.67
38616;BME280;24370;51.986;4.666;2023-03-26T12:18:56;100459.47;;;17.04;49.68
38616;BME280;24370;51.986;4.666;2023-03-26T12:21:21;100458.38;;;16.88;50.00
38616;BME280;24370;51.986;4.666;2023-03-26T12:26:42;100466.28;;;17.50;49.17
38616;BME280;24370;51.986;4.666;2023-03-26T12:29:13;100468.22;;;16.18;49.57
38616;BME280;24370;51.986;4.666;2023-03-26T12:31:54;100470.31;;;16.09;50.28
38616;BME280;24370;51.986;4.666;2023-03-26T12:34:22;100465.47;;;17.68;47.39
38616;BME280;24370;51.986;4.666;2023-03-26T12:36:54;100475.94;;;17.90;48.22
38616;BME280;24370;51.986;4.666;2023-03-26T12:41:58;100483.22;;;18.60;46.30
38616;BME280;24370;51.986;4.666;2023-03-26T12:44:25;100487.31;;;17.32;47.92
38616;BME280;24370;51.986;4.666;2023-03-26T12:47:07;100491.66;;;16.70;47.58
38616;BME280;24370;51.986;4.666;2023-03-26T12:49:34;100488.53;;;18.04;46.41
38616;BME280;24370;51.986;4.666;2023-03-26T12:54:59;100494.75;;;18.03;44.77
38616;BME280;24370;51.986;4.666;2023-03-26T12:57:34;100493.84;;;17.44;46.21
38616;BME280;24370;51.986;4.666;2023-03-26T13:10:44;100513.13;;;16.83;46.53
38616;BME280;24370;51.986;4.666;2023-03-26T13:18:52;100518.22;;;17.09;44.86
38616;BME280;24370;51.986;4.666;2023-03-26T13:21:26;100518.91;;;17.35;44.74
38616;BME280;24370;51.986;4.666;2023-03-26T13:24:08;100525.66;;;16.77;44.01
38616;BME280;24370;51.986;4.666;2023-03-26T13:29:19;100528.28;;;18.03;41.97
38616;BME280;24370;51.986;4.666;2023-03-26T13:34:56;100541.25;;;16.84;43.17
38616;BME280;24370;51.986;4.666;2023-03-26T13:37:52;100552.59;;;15.18;45.06
38616;BME280;24370;51.986;4.666;2023-03-26T13:40:25;100550.91;;;15.16;45.49
38616;BME280;24370;51.986;4.666;2023-03-26T13:46:48;100554.69;;;18.60;39.13
38616;BME280;24370;51.986;4.666;2023-03-26T13:51:38;100537.97;;;18.02;40.17
38616;BME280;24370;51.986;4.666;2023-03-26T13:56:38;100558.94;;;18.81;38.05
38616;BME280;24370;51.986;4.666;2023-03-26T14:01:40;100561.16;;;17.97;38.88
38616;BME280;24370;51.986;4.666;2023-03-26T14:04:18;100551.59;;;18.13;39.25
38616;BME280;24370;51.986;4.666;2023-03-26T14:09:46;100570.97;;;18.33;38.47
38616;BME280;24370;51.986;4.666;2023-03-26T14:12:25;100572.81;;;17.50;39.38
38616;BME280;24370;51.986;4.666;2023-03-26T14:15:08;100582.16;;;18.00;37.71
38616;BME280;24370;51.986;4.666;2023-03-26T14:17:50;100576.41;;;18.30;37.48
38616;BME280;24370;51.986;4.666;2023-03-26T14:26:13;100587.88;;;19.23;36.65
38616;BME280;24370;51.986;4.666;2023-03-26T14:34:52;100594.50;;;20.17;35.45
38616;BME280;24370;51.986;4.666;2023-03-26T14:43:14;100612.88;;;16.98;38.63
38616;BME280;24370;51.986;4.666;2023-03-26T14:48:36;100619.28;;;16.91;39.34
38616;BME280;24370;51.986;4.666;2023-03-26T14:51:17;100617.72;;;17.52;37.38
38616;BME280;24370;51.986;4.666;2023-03-26T14:53:53;100620.81;;;18.42;35.98
38616;BME280;24370;51.986;4.666;2023-03-26T15:10:24;100665.22;;;16.85;37.60
38616;BME280;24370;51.986;4.666;2023-03-26T15:21:27;100686.81;;;16.25;38.28
38616;BME280;24370;51.986;4.666;2023-03-26T15:24:05;100695.19;;;15.86;39.11
38616;BME280;24370;51.986;4.666;2023-03-26T15:36:02;100705.31;;;18.06;34.73
38616;BME280;24370;51.986;4.666;2023-03-26T15:39:08;100731.16;;;16.39;37.50
38616;BME280;24370;51.986;4.666;2023-03-26T15:41:49;100726.91;;;16.83;36.30
38616;BME280;24370;51.986;4.666;2023-03-26T15:49:53;100749.44;;;16.44;36.42
38616;BME280;24370;51.986;4.666;2023-03-26T15:52:28;100760.34;;;17.07;35.32
38616;BME280;24370;51.986;4.666;2023-03-26T15:57:36;100774.25;;;16.89;35.95
38616;BME280;24370;51.986;4.666;2023-03-26T16:00:18;100770.69;;;16.88;35.42
38616;BME280;24370;51.986;4.666;2023-03-26T16:08:40;100791.81;;;16.39;35.72
38616;BME280;24370;51.986;4.666;2023-03-26T16:11:10;100802.03;;;15.68;36.59
38616;BME280;24370;51.986;4.666;2023-03-26T16:13:48;100795.72;;;16.27;35.40
38616;BME280;24370;51.986;4.666;2023-03-26T16:18:44;100806.97;;;16.83;35.43
38616;BME280;24370;51.986;4.666;2023-03-26T16:33:56;100836.91;;;16.58;35.04
38616;BME280;24370;51.986;4.666;2023-03-26T16:36:35;100844.56;;;16.13;36.21
38616;BME280;24370;51.986;4.666;2023-03-26T16:41:31;100855.25;;;16.35;34.65
38616;BME280;24370;51.986;4.666;2023-03-26T16:47:20;100872.28;;;15.69;34.81
38616;BME280;24370;51.986;4.666;2023-03-26T16:55:24;100895.69;;;15.80;34.10
38616;BME280;24370;51.986;4.666;2023-03-26T17:03:56;100900.41;;;14.38;35.46
38616;BME280;24370;51.986;4.666;2023-03-26T17:09:29;100918.78;;;15.40;34.20
38616;BME280;24370;51.986;4.666;2023-03-26T17:15:06;100938.56;;;14.91;35.13
38616;BME280;24370;51.986;4.666;2023-03-26T17:18:31;100936.22;;;14.06;36.11
38616;BME280;24370;51.986;4.666;2023-03-26T17:20:56;100946.09;;;14.34;35.63
38616;BME280;24370;51.986;4.666;2023-03-26T17:23:35;100954.81;;;14.72;34.38
38616;BME280;24370;51.986;4.666;2023-03-26T17:26:15;100951.50;;;14.28;34.88
38616;BME280;24370;51.986;4.666;2023-03-26T17:31:41;100967.81;;;14.03;34.61
38616;BME280;24370;51.986;4.666;2023-03-26T17:34:37;100988.81;;;13.64;35.57
38616;BME280;24370;51.986;4.666;2023-03-26T17:44:58;101000.03;;;15.23;33.40
38616;BME280;24370;51.986;4.666;2023-03-26T17:50:02;101016.53;;;14.57;35.00
38616;BME280;24370;51.986;4.666;2023-03-26T17:52:32;101018.34;;;14.55;34.90
38616;BME280;24370;51.986;4.666;2023-03-26T17:55:00;101031.84;;;15.14;34.20
38616;BME280;24370;51.986;4.666;2023-03-26T17:59:57;101043.00;;;14.11;35.33
38616;BME280;24370;51.986;4.666;2023-03-26T18:05:03;101051.47;;;14.25;34.50
38616;BME280;24370;51.986;4.666;2023-03-26T18:10:28;101071.69;;;14.64;33.84
38616;BME280;24370;51.986;4.666;2023-03-26T18:16:33;101085.03;;;14.14;35.04
38616;BME280;24370;51.986;4.666;2023-03-26T18:19:03;101075.03;;;14.70;34.78
38616;BME280;24370;51.986;4.666;2023-03-26T18:21:42;101085.22;;;15.20;34.65
38616;BME280;24370;51.986;4.666;2023-03-26T18:24:21;101104.31;;;14.53;35.67
38616;BME280;24370;51.986;4.666;2023-03-26T18:27:04;101104.91;;;13.32;37.68
38616;BME280;24370;51.986;4.666;2023-03-26T18:29:32;101108.94;;;12.97;38.56
38616;BME280;24370;51.986;4.666;2023-03-26T18:32:01;101121.88;;;13.11;39.29
38616;BME280;24370;51.986;4.666;2023-03-26T18:34:46;101126.13;;;13.71;38.22